createdAt,value
2022-09-28T00:07:49.837Z,7.3
2022-09-28T00:17:51.700Z,7.2
2022-09-28T00:27:54.116Z,7.1
2022-09-28T00:37:56.120Z,7
2022-09-28T00:47:58.097Z,7
2022-09-28T00:58:00.443Z,6.9
2022-09-28T01:08:02.130Z,6.7
2022-09-28T01:18:04.320Z,6.7
2022-09-28T01:28:06.806Z,6.8
2022-09-28T01:38:08.788Z,6.8
2022-09-28T01:48:11.087Z,6.7
2022-09-28T01:58:13.473Z,6.7
2022-09-28T02:08:15.946Z,6.8
2022-09-28T02:18:17.663Z,6.8
2022-09-28T02:28:20.281Z,6.7
2022-09-28T02:38:21.956Z,6.8
2022-09-28T02:48:36.098Z,6.8
2022-09-28T02:58:25.829Z,6.8
2022-09-28T03:08:27.430Z,6.8
2022-09-28T03:18:29.518Z,6.8
2022-09-28T03:28:31.190Z,6.8
2022-09-28T03:38:33.246Z,6.8
2022-09-28T03:48:35.241Z,6.9
2022-09-28T03:58:37.676Z,6.8
2022-09-28T04:08:39.523Z,6.9
2022-09-28T04:18:41.558Z,6.9
2022-09-28T04:28:44.053Z,6.8
2022-09-28T04:38:53.024Z,6.9
2022-09-28T04:48:48.243Z,6.9
2022-09-28T04:58:52.804Z,6.8
2022-09-28T05:18:55.254Z,6.9
2022-09-28T05:28:56.961Z,6.9
2022-09-28T05:38:58.656Z,6.9
2022-09-28T05:49:00.392Z,7
2022-09-28T05:59:02.633Z,7
2022-09-28T06:09:05.242Z,7.1
2022-09-28T06:19:07.566Z,7.3
2022-09-28T06:29:09.315Z,7.6
2022-09-28T06:39:11.652Z,7.5
2022-09-28T06:49:17.350Z,7.6
2022-09-28T06:59:15.781Z,7.5
2022-09-28T07:09:31.134Z,7.6
2022-09-28T07:19:19.952Z,7.7
2022-09-28T07:29:22.380Z,7.8
2022-09-28T07:39:24.556Z,7.9
2022-09-28T07:59:28.576Z,8.1
2022-09-28T08:09:30.351Z,8.1
2022-09-28T08:19:32.103Z,8.2
2022-09-28T08:29:34.279Z,8.3
2022-09-28T08:39:36.641Z,8.7
2022-09-28T08:49:39.192Z,8.8
2022-09-28T08:59:41.202Z,9.4
2022-09-28T09:09:43.727Z,9.3
2022-09-28T09:19:46.142Z,9.2
2022-09-28T09:29:48.279Z,9.5
2022-09-28T09:39:50.432Z,9.8
2022-09-28T09:39:57.368Z,9.8
2022-09-28T09:50:01.804Z,10
2022-09-28T10:00:02.272Z,9.6
2022-09-28T10:10:04.032Z,9.7
2022-09-28T10:20:06.545Z,11.4
2022-09-28T10:30:08.477Z,10.5
2022-09-28T10:40:10.818Z,10
2022-09-28T10:50:13.200Z,10.7
2022-09-28T11:00:15.598Z,10.7
2022-09-28T11:10:17.491Z,11.7
2022-09-28T11:30:22.246Z,11.9
2022-09-28T11:40:24.441Z,12.1
2022-09-28T11:50:26.043Z,12.5
2022-09-28T12:00:28.303Z,11.7
2022-09-28T12:10:30.596Z,12
2022-09-28T12:20:32.313Z,12
2022-09-28T12:30:34.305Z,11.7
2022-09-28T12:40:36.159Z,12
2022-09-28T12:50:40.062Z,12.3
2022-09-28T13:00:40.326Z,11.7
2022-09-28T13:10:42.287Z,11.4
2022-09-28T13:20:44.815Z,11.7
2022-09-28T13:30:46.957Z,12
2022-09-28T13:40:48.941Z,11.9
2022-09-28T13:50:50.867Z,12.4
2022-09-28T14:10:54.305Z,12.4
2022-09-28T14:20:56.491Z,11.7
2022-09-28T14:30:58.827Z,11.6
2022-09-28T14:41:00.681Z,11.6
2022-09-28T14:51:02.666Z,12
2022-09-28T15:01:04.576Z,12.3
2022-09-28T15:11:06.770Z,12.3
2022-09-28T15:21:09.407Z,12.4
2022-09-28T15:31:11.247Z,12.4
2022-09-28T15:41:13.302Z,11.8
2022-09-28T15:51:15.861Z,11.4
2022-09-28T16:01:17.908Z,11.3
2022-09-28T16:11:19.511Z,11.2
2022-09-28T16:21:22.110Z,11.2
2022-09-28T16:31:24.626Z,11.1
2022-09-28T16:41:26.439Z,11
2022-09-28T16:51:28.742Z,10.8
2022-09-28T17:01:31.212Z,10.6
2022-09-28T17:11:33.137Z,10.5
2022-09-28T17:21:34.837Z,10.4
2022-09-28T17:31:37.445Z,10.3
2022-09-28T17:41:40.040Z,10.3
2022-09-28T17:51:42.419Z,10.1
2022-09-28T18:01:44.323Z,10
2022-09-28T18:11:46.031Z,9.9
2022-09-28T18:21:48.398Z,9.9
2022-09-28T18:31:50.261Z,9.7
2022-09-28T18:41:52.277Z,9.4
2022-09-28T18:51:54.084Z,9.2
2022-09-28T19:01:56.306Z,9
2022-09-28T19:11:58.557Z,8.9
2022-09-28T19:22:00.273Z,8.7
2022-09-28T19:32:02.271Z,8.4
2022-09-28T19:42:03.982Z,8.2
2022-09-28T19:52:14.529Z,7.9
2022-09-28T20:02:08.935Z,7.8
2022-09-28T20:12:10.680Z,7.7
2022-09-28T20:22:13.181Z,7.5
2022-09-28T20:32:15.636Z,7.6
2022-09-28T20:42:17.558Z,7.7
2022-09-28T20:52:19.533Z,7.7
2022-09-28T21:02:21.490Z,7.8
2022-09-28T21:12:23.443Z,7.8
2022-09-28T21:22:25.652Z,8
2022-09-28T21:32:27.824Z,8.1
2022-09-28T21:42:30.186Z,8.2
2022-09-28T21:52:32.715Z,8.1
2022-09-28T22:02:34.767Z,8
2022-09-28T22:12:37.075Z,7.9
2022-09-28T22:22:38.933Z,7.7
2022-09-28T22:32:41.279Z,7.5
2022-09-28T22:42:43.122Z,7.3
2022-09-28T22:52:45.227Z,6.9
2022-09-28T23:02:47.103Z,6.8
2022-09-28T23:12:49.195Z,6.6
2022-09-28T23:32:53.313Z,6.3
2022-09-28T23:52:58.195Z,6
